Time;durP1;ratioP1;P1;durP2;ratioP2;P2;SDS_P1;SDS_P2;PMS_P1;PMS_P2;Temp;Humidity;BMP_temperature;BMP_pressure;BME280_temperature;BME280_humidity;BME280_pressure;Samples;Min_cycle;Max_cycle;Signal;HPM_P1;HPM_P2
2022/08/25 00:01:22;;;;;;;8.82;4.87;;;;;;;;;;4378965;32;20061;-66
2022/08/25 00:03:49;;;;;;;9.50;5.00;;;;;;;;;;4366692;32;20085;-66
2022/08/25 00:06:16;;;;;;;9.23;5.07;;;;;;;;;;4378849;32;20089;-66
2022/08/25 00:08:43;;;;;;;10.80;5.32;;;;;;;;;;4378914;32;20155;-66
2022/08/25 00:11:18;;;;;;;10.55;4.75;;;;;;;;;;4378895;32;20090;-66
2022/08/25 00:13:54;;;;;;;7.43;4.72;;;;;;;;;;4392907;32;20143;-67
2022/08/25 00:16:21;;;;;;;9.80;5.40;;;;;;;;;;4393116;32;20089;-66
2022/08/25 00:18:50;;;;;;;10.57;5.40;;;;;;;;;;4366161;32;20096;-68
2022/08/25 00:21:18;;;;;;;8.50;4.55;;;;;;;;;;4379193;32;20084;-67
2022/08/25 00:23:46;;;;;;;9.20;4.65;;;;;;;;;;4366655;32;20149;-66
2022/08/25 00:26:14;;;;;;;7.30;4.85;;;;;;;;;;4392659;32;20269;-66
2022/08/25 00:28:41;;;;;;;7.50;5.10;;;;;;;;;;4366869;32;20074;-67
2022/08/25 00:31:13;;;;;;;8.98;5.10;;;;;;;;;;4366355;32;20193;-66
2022/08/25 00:33:40;;;;;;;9.20;5.55;;;;;;;;;;4353724;32;20089;-68
2022/08/25 00:36:06;;;;;;;11.93;5.15;;;;;;;;;;4378906;32;20161;-66
2022/08/25 00:38:33;;;;;;;8.55;4.78;;;;;;;;;;4366511;32;20193;-66
2022/08/25 00:41:06;;;;;;;11.27;4.87;;;;;;;;;;4392619;32;20096;-66
2022/08/25 00:43:46;;;;;;;13.27;5.03;;;;;;;;;;4392675;32;20074;-66
2022/08/25 00:46:17;;;;;;;9.18;4.57;;;;;;;;;;4353883;32;20186;-67
2022/08/25 00:48:46;;;;;;;9.00;5.12;;;;;;;;;;4392467;32;20161;-66
2022/08/25 00:51:15;;;;;;;8.52;4.70;;;;;;;;;;4378413;32;20160;-67
2022/08/25 00:53:43;;;;;;;9.70;4.57;;;;;;;;;;4385793;32;20141;-66
2022/08/25 00:56:10;;;;;;;8.55;4.87;;;;;;;;;;4367559;32;20561;-67
2022/08/25 00:58:38;;;;;;;7.82;5.12;;;;;;;;;;4365733;32;20533;-67
2022/08/25 01:01:05;;;;;;;9.15;5.00;;;;;;;;;;4378652;32;20153;-66
2022/08/25 01:03:32;;;;;;;10.25;5.07;;;;;;;;;;4378008;32;20460;-66
2022/08/25 01:06:00;;;;;;;9.23;5.15;;;;;;;;;;4391972;32;20167;-66
2022/08/25 01:08:29;;;;;;;7.12;4.55;;;;;;;;;;4365894;32;20069;-66
2022/08/25 01:10:56;;;;;;;8.50;4.90;;;;;;;;;;4378094;32;20085;-67
2022/08/25 01:13:27;;;;;;;10.80;4.87;;;;;;;;;;4377680;32;20169;-67
2022/08/25 01:15:55;;;;;;;6.68;4.60;;;;;;;;;;4378349;32;20168;-66
2022/08/25 01:18:23;;;;;;;8.70;5.30;;;;;;;;;;4353046;32;20089;-67
2022/08/25 01:20:54;;;;;;;8.32;5.22;;;;;;;;;;4365575;32;20161;-67
2022/08/25 01:23:21;;;;;;;8.60;4.70;;;;;;;;;;4377503;32;20153;-66
2022/08/25 01:26:26;;;;;;;10.15;5.18;;;;;;;;;;4378671;32;20117;-66
2022/08/25 01:31:39;;;;;;;7.57;4.72;;;;;;;;;;4392180;32;20153;-66
2022/08/25 01:34:06;;;;;;;9.35;4.50;;;;;;;;;;4377506;32;20081;-66
2022/08/25 01:36:34;;;;;;;10.82;5.07;;;;;;;;;;4365376;32;20178;-67
2022/08/25 01:39:01;;;;;;;9.10;4.80;;;;;;;;;;4365135;32;20151;-66
2022/08/25 01:41:44;;;;;;;11.43;4.57;;;;;;;;;;4377714;32;20543;-66
2022/08/25 01:44:11;;;;;;;7.62;4.45;;;;;;;;;;4365341;32;20496;-66
2022/08/25 01:46:38;;;;;;;7.32;4.35;;;;;;;;;;4365016;32;20499;-67
2022/08/25 01:49:04;;;;;;;7.50;4.68;;;;;;;;;;4377549;32;20068;-67
2022/08/25 01:51:39;;;;;;;8.93;4.60;;;;;;;;;;4378221;32;20070;-66
2022/08/25 01:54:05;;;;;;;7.72;4.57;;;;;;;;;;4365511;32;20083;-67
2022/08/25 01:56:33;;;;;;;8.95;5.00;;;;;;;;;;4391675;32;20085;-66
2022/08/25 01:58:59;;;;;;;8.25;4.87;;;;;;;;;;4377653;32;20082;-67
2022/08/25 02:01:26;;;;;;;9.02;4.75;;;;;;;;;;4391482;32;20492;-66
2022/08/25 02:03:55;;;;;;;10.88;4.87;;;;;;;;;;4377331;32;20076;-67
2022/08/25 02:06:26;;;;;;;10.73;5.18;;;;;;;;;;4377467;32;20097;-66
2022/08/25 02:08:54;;;;;;;10.00;5.10;;;;;;;;;;4377343;32;20078;-66
2022/08/25 02:11:22;;;;;;;10.95;4.90;;;;;;;;;;4365560;32;20174;-67
2022/08/25 02:13:51;;;;;;;7.53;4.87;;;;;;;;;;4352321;32;20084;-66
2022/08/25 02:16:24;;;;;;;10.00;4.62;;;;;;;;;;4365673;32;20086;-68
2022/08/25 02:18:52;;;;;;;11.18;4.82;;;;;;;;;;4365115;32;20082;-66
2022/08/25 02:21:19;;;;;;;6.05;4.45;;;;;;;;;;4391189;32;20082;-67
2022/08/25 02:23:46;;;;;;;10.65;4.93;;;;;;;;;;4377324;32;20081;-66
2022/08/25 02:26:17;;;;;;;9.88;4.90;;;;;;;;;;4377819;32;20102;-66
2022/08/25 02:28:45;;;;;;;9.27;4.90;;;;;;;;;;4378109;32;20078;-67
2022/08/25 02:31:12;;;;;;;8.90;4.55;;;;;;;;;;4377414;32;20467;-66
2022/08/25 02:33:39;;;;;;;8.05;4.40;;;;;;;;;;4365204;32;20096;-66
2022/08/25 02:36:06;;;;;;;9.43;4.32;;;;;;;;;;4379401;32;20595;-66
2022/08/25 02:38:33;;;;;;;6.93;4.45;;;;;;;;;;4380608;32;20093;-67
2022/08/25 02:41:00;;;;;;;6.87;4.15;;;;;;;;;;4380067;32;20078;-66
2022/08/25 02:43:28;;;;;;;8.93;4.72;;;;;;;;;;4380089;32;20148;-66
2022/08/25 02:45:55;;;;;;;10.30;4.60;;;;;;;;;;4367885;32;20081;-66
2022/08/25 02:48:22;;;;;;;7.07;4.18;;;;;;;;;;4394128;32;20541;-67
2022/08/25 02:50:52;;;;;;;8.15;4.47;;;;;;;;;;4393972;32;20124;-68
2022/08/25 02:53:19;;;;;;;9.02;4.55;;;;;;;;;;4380072;32;20460;-67
2022/08/25 02:55:46;;;;;;;11.82;5.20;;;;;;;;;;4380115;32;20089;-67
2022/08/25 02:58:14;;;;;;;11.18;4.70;;;;;;;;;;4379986;32;20089;-66
2022/08/25 03:00:40;;;;;;;10.73;4.60;;;;;;;;;;4367138;32;20152;-67
2022/08/25 03:03:07;;;;;;;11.02;4.50;;;;;;;;;;4367756;32;20144;-66
2022/08/25 03:05:34;;;;;;;10.90;4.50;;;;;;;;;;4381052;32;20086;-67
2022/08/25 03:08:01;;;;;;;8.55;4.00;;;;;;;;;;4394169;32;20157;-67
2022/08/25 03:10:27;;;;;;;6.32;4.45;;;;;;;;;;4394736;32;20088;-68
2022/08/25 03:12:54;;;;;;;10.95;4.50;;;;;;;;;;4380198;32;20096;-67
2022/08/25 03:15:22;;;;;;;8.07;4.32;;;;;;;;;;4380711;32;20489;-67
2022/08/25 03:17:49;;;;;;;9.85;4.87;;;;;;;;;;4379519;32;20084;-67
2022/08/25 03:20:16;;;;;;;9.88;5.00;;;;;;;;;;4367118;32;20081;-67
2022/08/25 03:22:43;;;;;;;7.93;4.60;;;;;;;;;;4355011;32;20439;-66
2022/08/25 03:27:59;;;;;;;7.22;4.85;;;;;;;;;;4365547;32;20089;-67
2022/08/25 03:30:26;;;;;;;9.45;4.30;;;;;;;;;;4380965;32;20074;-66
2022/08/25 03:32:53;;;;;;;8.25;4.20;;;;;;;;;;4393147;32;20193;-66
2022/08/25 03:35:20;;;;;;;12.07;5.05;;;;;;;;;;4393768;32;20093;-66
2022/08/25 03:37:47;;;;;;;11.90;4.82;;;;;;;;;;4379907;32;20154;-67
2022/08/25 03:40:16;;;;;;;10.13;4.80;;;;;;;;;;4367430;32;20106;-66
2022/08/25 03:42:46;;;;;;;12.85;5.50;;;;;;;;;;4379567;32;20447;-66
2022/08/25 03:45:15;;;;;;;10.98;5.80;;;;;;;;;;4379201;32;20098;-67
2022/08/25 03:47:42;;;;;;;10.88;5.18;;;;;;;;;;4379197;32;20085;-66
2022/08/25 03:50:10;;;;;;;10.93;5.75;;;;;;;;;;4366874;32;20076;-67
2022/08/25 03:52:37;;;;;;;10.32;5.93;;;;;;;;;;4379293;32;20079;-67
2022/08/25 03:55:07;;;;;;;11.35;6.07;;;;;;;;;;4366780;32;20074;-67
2022/08/25 03:57:34;;;;;;;12.73;6.45;;;;;;;;;;4366787;32;20153;-68
2022/08/25 04:00:01;;;;;;;10.15;6.85;;;;;;;;;;4393068;32;20150;-67
2022/08/25 04:02:28;;;;;;;14.85;7.90;;;;;;;;;;4366892;32;20080;-67
2022/08/25 04:04:55;;;;;;;16.90;8.80;;;;;;;;;;4366769;32;20074;-67
2022/08/25 04:07:22;;;;;;;17.70;7.45;;;;;;;;;;4379071;32;20081;-66
2022/08/25 04:09:48;;;;;;;16.40;8.68;;;;;;;;;;4378919;32;20086;-66
2022/08/25 04:12:16;;;;;;;20.65;8.20;;;;;;;;;;4392627;32;20101;-67
2022/08/25 04:14:42;;;;;;;16.95;7.50;;;;;;;;;;4378574;32;20070;-67
2022/08/25 04:17:09;;;;;;;12.45;7.28;;;;;;;;;;4379316;32;20077;-66
2022/08/25 04:19:37;;;;;;;16.25;7.28;;;;;;;;;;4379127;32;20447;-66
2022/08/25 04:22:03;;;;;;;14.85;7.05;;;;;;;;;;4392814;32;20088;-66
2022/08/25 04:24:30;;;;;;;10.05;6.87;;;;;;;;;;4392846;32;20170;-67
2022/08/25 04:26:58;;;;;;;12.35;6.90;;;;;;;;;;4392881;32;20088;-67
2022/08/25 04:29:25;;;;;;;14.68;7.47;;;;;;;;;;4379341;32;20101;-66
2022/08/25 04:31:53;;;;;;;12.93;7.20;;;;;;;;;;4366347;32;20070;-67
2022/08/25 04:34:21;;;;;;;11.57;6.90;;;;;;;;;;4392474;32;20080;-67
2022/08/25 04:36:51;;;;;;;14.98;7.10;;;;;;;;;;4366269;32;20101;-67
2022/08/25 04:39:19;;;;;;;13.02;7.90;;;;;;;;;;4366463;32;20086;-67
2022/08/25 04:41:50;;;;;;;13.15;7.47;;;;;;;;;;4366394;32;20082;-67
2022/08/25 04:44:17;;;;;;;15.40;7.82;;;;;;;;;;4366025;32;20096;-66
2022/08/25 04:46:44;;;;;;;14.02;7.43;;;;;;;;;;4378334;32;20104;-67
2022/08/25 04:49:10;;;;;;;14.43;6.70;;;;;;;;;;4378632;32;20074;-66
2022/08/25 04:51:39;;;;;;;14.52;6.90;;;;;;;;;;4378028;32;20221;-66
2022/08/25 04:54:08;;;;;;;13.25;7.30;;;;;;;;;;4391934;32;20087;-68
2022/08/25 04:56:36;;;;;;;11.05;6.45;;;;;;;;;;4365830;32;20085;-65
2022/08/25 04:59:09;;;;;;;16.27;8.43;;;;;;;;;;4377783;32;20065;-67
2022/08/25 05:01:36;;;;;;;15.48;7.53;;;;;;;;;;4378113;32;20160;-66
2022/08/25 05:04:05;;;;;;;11.75;7.28;;;;;;;;;;4377907;32;20085;-67
2022/08/25 05:06:31;;;;;;;16.40;8.73;;;;;;;;;;4392061;32;20078;-66
2022/08/25 05:08:58;;;;;;;16.10;7.55;;;;;;;;;;4378321;32;20074;-67
2022/08/25 05:11:26;;;;;;;15.05;7.57;;;;;;;;;;4377877;32;20153;-67
2022/08/25 05:13:54;;;;;;;13.73;7.45;;;;;;;;;;4377811;32;20170;-67
2022/08/25 05:16:22;;;;;;;12.68;8.10;;;;;;;;;;4378893;32;20141;-67
2022/08/25 05:18:48;;;;;;;13.02;7.57;;;;;;;;;;4378465;32;20174;-68
2022/08/25 05:21:17;;;;;;;16.02;8.82;;;;;;;;;;4392016;32;20070;-67
2022/08/25 05:23:45;;;;;;;14.85;8.00;;;;;;;;;;4379066;32;20088;-67
2022/08/25 05:26:22;;;;;;;13.75;7.72;;;;;;;;;;4377893;32;20081;-67
2022/08/25 05:28:50;;;;;;;16.83;8.13;;;;;;;;;;4378407;32;20066;-67
2022/08/25 05:31:16;;;;;;;18.08;7.72;;;;;;;;;;4365879;32;20074;-67
2022/08/25 05:33:43;;;;;;;38.10;16.02;;;;;;;;;;4352846;32;20105;-67
2022/08/25 05:36:11;;;;;;;33.05;13.82;;;;;;;;;;4362666;32;20157;-67
2022/08/25 05:38:39;;;;;;;36.05;15.70;;;;;;;;;;4376507;32;20084;-67
2022/08/25 05:41:09;;;;;;;30.60;14.10;;;;;;;;;;4363381;32;20070;-67
2022/08/25 05:43:37;;;;;;;36.42;14.48;;;;;;;;;;4350471;32;20072;-67
2022/08/25 05:46:04;;;;;;;21.62;11.85;;;;;;;;;;4376522;32;20153;-67
2022/08/25 05:48:30;;;;;;;33.70;14.38;;;;;;;;;;4350571;32;20098;-66
2022/08/25 05:51:01;;;;;;;27.70;11.38;;;;;;;;;;4376640;32;20597;-67
2022/08/25 05:53:29;;;;;;;24.45;10.80;;;;;;;;;;4363125;32;20059;-66
2022/08/25 05:55:57;;;;;;;26.12;13.13;;;;;;;;;;4376154;32;20080;-67
2022/08/25 05:58:24;;;;;;;26.25;10.43;;;;;;;;;;4362329;32;20523;-68
2022/08/25 06:00:51;;;;;;;20.62;10.93;;;;;;;;;;4362982;32;20078;-67
2022/08/25 06:03:18;;;;;;;25.10;12.27;;;;;;;;;;4363972;32;20074;-67
2022/08/25 06:05:45;;;;;;;19.23;10.23;;;;;;;;;;4369206;32;20141;-67
2022/08/25 06:08:12;;;;;;;20.85;9.38;;;;;;;;;;4354327;32;20167;-66
2022/08/25 06:10:39;;;;;;;17.52;9.82;;;;;;;;;;4362223;32;20540;-67
2022/08/25 06:13:05;;;;;;;21.02;9.23;;;;;;;;;;4337837;32;20077;-67
2022/08/25 06:15:32;;;;;;;17.83;8.75;;;;;;;;;;4350045;32;20084;-67
2022/08/25 06:18:01;;;;;;;17.12;9.52;;;;;;;;;;4350092;32;20151;-67
2022/08/25 06:20:29;;;;;;;19.52;9.15;;;;;;;;;;4362448;32;20520;-67
2022/08/25 06:22:58;;;;;;;17.67;8.48;;;;;;;;;;4362592;32;20096;-67
2022/08/25 06:25:26;;;;;;;17.98;8.90;;;;;;;;;;4363145;32;20166;-68
2022/08/25 06:27:53;;;;;;;15.45;8.05;;;;;;;;;;4362316;32;20097;-67
2022/08/25 06:30:22;;;;;;;17.55;7.93;;;;;;;;;;4350046;32;20155;-66
2022/08/25 06:32:49;;;;;;;16.20;8.13;;;;;;;;;;4362458;32;20157;-65
2022/08/25 06:35:17;;;;;;;17.08;8.45;;;;;;;;;;4376087;32;20085;-67
2022/08/25 06:37:44;;;;;;;19.05;8.85;;;;;;;;;;4362259;32;20524;-67
2022/08/25 06:40:12;;;;;;;19.42;10.52;;;;;;;;;;4349947;32;20161;-66
2022/08/25 06:42:39;;;;;;;19.02;8.85;;;;;;;;;;4362161;32;20102;-68
2022/08/25 06:45:07;;;;;;;20.67;9.75;;;;;;;;;;4361975;32;20070;-66
2022/08/25 06:47:33;;;;;;;22.00;10.52;;;;;;;;;;4362103;32;20097;-67
2022/08/25 06:50:02;;;;;;;25.15;11.05;;;;;;;;;;4375968;32;20083;-67
2022/08/25 06:52:29;;;;;;;24.00;11.38;;;;;;;;;;4362151;32;20084;-67
2022/08/25 06:54:56;;;;;;;24.75;10.50;;;;;;;;;;4362393;32;20078;-67
2022/08/25 06:57:23;;;;;;;18.67;10.88;;;;;;;;;;4362095;32;20512;-66
2022/08/25 06:59:49;;;;;;;19.35;10.80;;;;;;;;;;4362827;32;20069;-66
2022/08/25 07:02:16;;;;;;;19.15;11.10;;;;;;;;;;4362386;32;20145;-67
2022/08/25 07:04:43;;;;;;;20.27;11.52;;;;;;;;;;4361576;32;20080;-67
2022/08/25 07:07:09;;;;;;;22.45;12.70;;;;;;;;;;4362012;32;20081;-68
2022/08/25 07:09:36;;;;;;;26.00;11.40;;;;;;;;;;4375634;32;20089;-67
2022/08/25 07:12:04;;;;;;;19.95;11.75;;;;;;;;;;4375736;32;20078;-67
2022/08/25 07:14:31;;;;;;;19.17;10.63;;;;;;;;;;4361691;32;20164;-67
2022/08/25 07:16:58;;;;;;;18.80;10.32;;;;;;;;;;4375718;32;20154;-66
2022/08/25 07:19:25;;;;;;;19.27;10.00;;;;;;;;;;4362085;32;20085;-66
2022/08/25 07:21:52;;;;;;;16.83;10.38;;;;;;;;;;4363199;32;20082;-68
2022/08/25 07:24:20;;;;;;;17.48;10.52;;;;;;;;;;4364264;32;20559;-68
2022/08/25 07:26:47;;;;;;;18.83;9.60;;;;;;;;;;4364865;32;20093;-67
2022/08/25 07:29:21;;;;;;;16.35;9.25;;;;;;;;;;4351911;32;20073;-66
2022/08/25 07:31:47;;;;;;;19.02;10.80;;;;;;;;;;4364388;32;20089;-67
2022/08/25 07:37:00;;;;;;;20.17;9.55;;;;;;;;;;4378480;32;20077;-66
2022/08/25 07:39:27;;;;;;;18.80;9.32;;;;;;;;;;4378144;32;20532;-67
2022/08/25 07:41:54;;;;;;;19.52;10.13;;;;;;;;;;4364540;32;20105;-67
2022/08/25 07:47:04;;;;;;;20.25;11.93;;;;;;;;;;3857234;37;20065;-67
2022/08/25 07:49:31;;;;;;;23.17;10.93;;;;;;;;;;4406079;32;20074;-67
2022/08/25 07:51:58;;;;;;;16.85;11.12;;;;;;;;;;4418036;32;20066;-67
2022/08/25 07:54:26;;;;;;;13.90;8.75;;;;;;;;;;4418182;32;20492;-67
2022/08/25 07:56:52;;;;;;;13.75;7.15;;;;;;;;;;4419717;32;20073;-67
2022/08/25 07:59:19;;;;;;;12.37;8.63;;;;;;;;;;4418099;32;20157;-67
2022/08/25 08:01:46;;;;;;;11.35;6.62;;;;;;;;;;4418005;32;20096;-67
2022/08/25 08:04:12;;;;;;;8.25;6.22;;;;;;;;;;4418007;32;20140;-67
2022/08/25 08:06:40;;;;;;;12.13;7.00;;;;;;;;;;4418255;32;20108;-66
2022/08/25 08:09:06;;;;;;;10.68;6.78;;;;;;;;;;4418307;32;20083;-67
2022/08/25 08:11:39;;;;;;;9.95;4.90;;;;;;;;;;4418237;32;20087;-68
2022/08/25 08:14:07;;;;;;;6.25;4.20;;;;;;;;;;4418196;32;20069;-67
2022/08/25 08:16:33;;;;;;;5.20;4.15;;;;;;;;;;4417767;32;20555;-67
2022/08/25 08:19:01;;;;;;;5.97;4.43;;;;;;;;;;4402420;32;20074;-66
2022/08/25 08:21:31;;;;;;;9.02;4.60;;;;;;;;;;4402630;32;20084;-67
2022/08/25 08:23:58;;;;;;;5.78;4.25;;;;;;;;;;4377589;32;20545;-66
2022/08/25 08:26:27;;;;;;;8.07;4.32;;;;;;;;;;4402193;32;20174;-68
2022/08/25 08:28:54;;;;;;;9.45;6.12;;;;;;;;;;4390432;32;20097;-67
2022/08/25 08:31:22;;;;;;;12.77;6.90;;;;;;;;;;4402624;32;20157;-67
2022/08/25 08:33:49;;;;;;;8.68;5.72;;;;;;;;;;4402336;32;20138;-67
2022/08/25 08:36:17;;;;;;;8.70;6.03;;;;;;;;;;4402299;32;20085;-67
2022/08/25 08:38:44;;;;;;;8.80;4.97;;;;;;;;;;4402838;32;20085;-67
2022/08/25 08:44:32;;;;;;;7.45;5.40;;;;;;;;;;4391994;32;20174;-67
2022/08/25 08:47:26;;;;;;;9.35;6.00;;;;;;;;;;4404084;32;20077;-67
2022/08/25 08:50:05;;;;;;;8.50;6.03;;;;;;;;;;4406479;32;20085;-66
2022/08/25 08:53:01;;;;;;;9.05;6.50;;;;;;;;;;4405162;32;20177;-66
2022/08/25 08:55:33;;;;;;;7.57;5.05;;;;;;;;;;4402745;32;20509;-68
2022/08/25 08:58:05;;;;;;;12.75;7.00;;;;;;;;;;4394052;32;20074;-66
2022/08/25 09:00:33;;;;;;;10.70;6.25;;;;;;;;;;4393621;32;20078;-67
2022/08/25 09:03:06;;;;;;;9.07;6.65;;;;;;;;;;4379514;32;20077;-68
2022/08/25 09:05:47;;;;;;;10.27;5.95;;;;;;;;;;4367128;32;20096;-67
2022/08/25 09:08:17;;;;;;;7.90;6.00;;;;;;;;;;4379859;32;20101;-67
2022/08/25 09:11:26;;;;;;;12.13;6.10;;;;;;;;;;4379373;32;20154;-67
2022/08/25 09:13:59;;;;;;;11.73;6.10;;;;;;;;;;4393748;32;20066;-68
2022/08/25 09:16:53;;;;;;;9.25;6.90;;;;;;;;;;4391786;32;20115;-67
2022/08/25 09:19:32;;;;;;;8.57;5.93;;;;;;;;;;4391507;32;20066;-66
2022/08/25 09:22:17;;;;;;;11.50;6.93;;;;;;;;;;4393605;32;20089;-67
2022/08/25 09:24:53;;;;;;;8.32;5.97;;;;;;;;;;4393359;32;20065;-67
2022/08/25 09:27:45;;;;;;;10.75;6.78;;;;;;;;;;4393584;32;20149;-68
2022/08/25 09:30:15;;;;;;;8.88;5.97;;;;;;;;;;4393658;32;20078;-66
2022/08/25 09:32:44;;;;;;;10.38;6.45;;;;;;;;;;4379277;32;20457;-67
2022/08/25 09:35:25;;;;;;;11.27;6.18;;;;;;;;;;4391307;32;20084;-68
2022/08/25 09:37:58;;;;;;;9.80;5.90;;;;;;;;;;4391794;32;20089;-66
2022/08/25 09:40:27;;;;;;;8.60;5.95;;;;;;;;;;4393356;32;20112;-67
2022/08/25 09:42:56;;;;;;;8.82;6.45;;;;;;;;;;4391305;32;20094;-67
2022/08/25 09:45:45;;;;;;;9.02;5.78;;;;;;;;;;4391110;32;20094;-67
2022/08/25 09:48:37;;;;;;;8.70;6.57;;;;;;;;;;4391642;32;20143;-67
2022/08/25 09:51:27;;;;;;;8.82;6.47;;;;;;;;;;4391387;32;20105;-67
2022/08/25 09:53:55;;;;;;;9.60;6.30;;;;;;;;;;4391025;32;20471;-67
2022/08/25 09:56:24;;;;;;;10.18;6.37;;;;;;;;;;4392437;32;20502;-66
2022/08/25 09:58:54;;;;;;;10.13;6.22;;;;;;;;;;4390962;32;20535;-66
2022/08/25 10:01:23;;;;;;;11.27;7.45;;;;;;;;;;4378481;32;20069;-66
2022/08/25 10:03:59;;;;;;;7.65;5.87;;;;;;;;;;4390902;32;20100;-72
2022/08/25 10:06:26;;;;;;;;;;;;;;;;;;4381755;32;20590;-65
2022/08/25 10:09:05;;;;;;;9.13;6.25;;;;;;;;;;4374309;32;20400;-66
2022/08/25 10:11:51;;;;;;;9.27;5.60;;;;;;;;;;4375615;32;20065;-66
2022/08/25 10:14:39;;;;;;;8.98;6.20;;;;;;;;;;4363443;32;20081;-65
2022/08/25 10:17:25;;;;;;;9.25;6.40;;;;;;;;;;4377764;32;20077;-66
2022/08/25 10:20:14;;;;;;;10.25;6.35;;;;;;;;;;4382489;32;20509;-66
2022/08/25 10:22:43;;;;;;;8.82;6.15;;;;;;;;;;4375874;32;20077;-64
2022/08/25 10:25:13;;;;;;;12.77;7.03;;;;;;;;;;4363121;32;20066;-64
2022/08/25 10:28:07;;;;;;;6.32;5.28;;;;;;;;;;4375921;32;20078;-63
2022/08/25 10:30:50;;;;;;;8.48;6.53;;;;;;;;;;4379963;32;20069;-65
2022/08/25 10:33:50;;;;;;;9.63;6.28;;;;;;;;;;4383094;32;20157;-68
2022/08/25 10:36:24;;;;;;;10.20;6.62;;;;;;;;;;4380581;32;20078;-65
2022/08/25 10:38:57;;;;;;;9.40;6.57;;;;;;;;;;4382259;32;20070;-65
2022/08/25 10:41:43;;;;;;;9.75;6.53;;;;;;;;;;4382399;32;20081;-65
2022/08/25 10:47:36;;;;;;;9.33;6.13;;;;;;;;;;4386701;32;20074;-66
2022/08/25 10:50:28;;;;;;;11.25;7.20;;;;;;;;;;4377620;32;20545;-68
2022/08/25 10:53:16;;;;;;;8.73;6.47;;;;;;;;;;4351769;32;20148;-64
2022/08/25 10:56:02;;;;;;;8.43;6.05;;;;;;;;;;4376802;32;20088;-64
2022/08/25 10:58:53;;;;;;;8.68;6.50;;;;;;;;;;4365415;32;20090;-64
2022/08/25 11:01:29;;;;;;;8.70;6.72;;;;;;;;;;4377618;32;20069;-64
2022/08/25 11:04:18;;;;;;;8.70;6.35;;;;;;;;;;4365349;32;20102;-65
2022/08/25 11:06:48;;;;;;;10.38;6.32;;;;;;;;;;4380314;32;20077;-64
2022/08/25 11:09:19;;;;;;;10.13;6.32;;;;;;;;;;4381192;32;20091;-63
2022/08/25 11:11:53;;;;;;;10.98;6.65;;;;;;;;;;4379504;32;20089;-63
2022/08/25 11:14:46;;;;;;;11.20;6.22;;;;;;;;;;4393205;32;20141;-63
2022/08/25 11:18:00;;;;;;;11.85;6.82;;;;;;;;;;4379680;32;20085;-64
2022/08/25 11:20:36;;;;;;;10.13;6.25;;;;;;;;;;4369567;32;20066;-63
2022/08/25 11:23:35;;;;;;;12.07;6.40;;;;;;;;;;4378011;32;20086;-63
2022/08/25 11:26:11;;;;;;;11.30;6.62;;;;;;;;;;4392266;32;20086;-65
2022/08/25 11:28:54;;;;;;;13.15;6.55;;;;;;;;;;4361015;32;20116;-65
2022/08/25 11:31:22;;;;;;;12.23;6.70;;;;;;;;;;4373237;32;20116;-64
2022/08/25 11:33:50;;;;;;;8.25;6.20;;;;;;;;;;4376489;32;20062;-69
2022/08/25 11:36:30;;;;;;;8.52;6.07;;;;;;;;;;4382991;32;20159;-64
2022/08/25 11:39:15;;;;;;;8.20;5.95;;;;;;;;;;4392861;32;20154;-65
2022/08/25 11:42:15;;;;;;;9.15;6.60;;;;;;;;;;4390828;32;20070;-65
2022/08/25 11:45:20;;;;;;;12.23;5.78;;;;;;;;;;4391061;32;20075;-65
2022/08/25 11:48:06;;;;;;;9.40;6.32;;;;;;;;;;4390340;32;20085;-66
2022/08/25 11:50:59;;;;;;;8.70;6.17;;;;;;;;;;4391328;32;20058;-64
2022/08/25 11:53:29;;;;;;;11.18;6.75;;;;;;;;;;4377480;32;20078;-64
2022/08/25 11:56:01;;;;;;;11.38;6.97;;;;;;;;;;4390140;32;20092;-63
2022/08/25 11:58:43;;;;;;;8.63;6.47;;;;;;;;;;4378230;32;20157;-64
2022/08/25 12:01:33;;;;;;;8.70;6.40;;;;;;;;;;4391297;32;20428;-64
2022/08/25 12:04:14;;;;;;;7.85;5.87;;;;;;;;;;4391220;32;20516;-65
2022/08/25 12:07:06;;;;;;;8.55;5.90;;;;;;;;;;4377457;32;20153;-66
2022/08/25 12:09:53;;;;;;;11.55;6.60;;;;;;;;;;4377742;32;20115;-64
2022/08/25 12:12:35;;;;;;;10.77;6.20;;;;;;;;;;4389249;32;20093;-64
2022/08/25 12:15:33;;;;;;;9.60;6.22;;;;;;;;;;4391866;32;20086;-64
2022/08/25 12:18:16;;;;;;;10.20;6.20;;;;;;;;;;4370625;32;20156;-63
2022/08/25 12:20:52;;;;;;;10.63;6.47;;;;;;;;;;4391123;32;20093;-63
2022/08/25 12:23:28;;;;;;;;;;;;;;;;;;4391872;32;20170;-63
2022/08/25 12:26:06;;;;;;;11.80;6.40;;;;;;;;;;4389543;32;19954;-64
2022/08/25 12:28:35;;;;;;;10.02;6.30;;;;;;;;;;4389922;32;20062;-63
2022/08/25 12:31:07;;;;;;;9.45;6.40;;;;;;;;;;4390575;32;20080;-64
2022/08/25 12:34:00;;;;;;;10.70;6.25;;;;;;;;;;4392863;32;20074;-64
2022/08/25 12:36:32;;;;;;;8.27;6.50;;;;;;;;;;4392643;32;20266;-65
2022/08/25 12:39:32;;;;;;;11.43;6.68;;;;;;;;;;4392520;32;20080;-63
2022/08/25 12:42:04;;;;;;;12.37;6.85;;;;;;;;;;4378595;32;20519;-63
2022/08/25 12:44:41;;;;;;;12.88;6.68;;;;;;;;;;4379727;32;20172;-64
2022/08/25 12:47:13;;;;;;;8.80;6.78;;;;;;;;;;4393215;32;20153;-63
2022/08/25 12:49:40;;;;;;;9.88;6.35;;;;;;;;;;4383676;32;20080;-64
2022/08/25 12:52:20;;;;;;;12.30;7.68;;;;;;;;;;4385006;32;20504;-64
2022/08/25 12:55:04;;;;;;;13.60;8.27;;;;;;;;;;4385277;32;20085;-64
2022/08/25 12:57:43;;;;;;;10.32;6.82;;;;;;;;;;4384845;32;20092;-65
2022/08/25 13:00:16;;;;;;;13.77;7.78;;;;;;;;;;4371361;32;20228;-65
2022/08/25 13:03:20;;;;;;;9.75;6.62;;;;;;;;;;4364725;32;20084;-65
2022/08/25 13:05:59;;;;;;;9.60;6.43;;;;;;;;;;4377991;32;20074;-64
2022/08/25 13:08:53;;;;;;;9.90;7.45;;;;;;;;;;4376791;32;20067;-64
2022/08/25 13:11:37;;;;;;;13.00;7.30;;;;;;;;;;4381057;32;20089;-64
2022/08/25 13:14:16;;;;;;;12.13;7.50;;;;;;;;;;4372679;32;20104;-65
2022/08/25 13:16:56;;;;;;;10.75;7.40;;;;;;;;;;4386688;32;20506;-64
2022/08/25 13:19:25;;;;;;;12.15;7.25;;;;;;;;;;4380954;32;20158;-63
2022/08/25 13:21:52;;;;;;;13.10;7.40;;;;;;;;;;4366636;32;20081;-64
2022/08/25 13:24:26;;;;;;;12.63;7.37;;;;;;;;;;4376336;32;20101;-64
2022/08/25 13:26:58;;;;;;;11.15;7.60;;;;;;;;;;4351973;32;20484;-64
2022/08/25 13:29:28;;;;;;;12.02;7.28;;;;;;;;;;4365363;32;20528;-63
2022/08/25 13:32:00;;;;;;;12.60;7.97;;;;;;;;;;4377048;32;20094;-64
2022/08/25 13:34:38;;;;;;;9.52;6.78;;;;;;;;;;4378210;32;20142;-64
2022/08/25 13:37:27;;;;;;;11.23;7.37;;;;;;;;;;4363819;32;20606;-64
2022/08/25 13:40:17;;;;;;;11.73;7.22;;;;;;;;;;4376748;32;20494;-64
2022/08/25 13:42:46;;;;;;;10.55;7.20;;;;;;;;;;4364060;32;20082;-64
2022/08/25 13:45:15;;;;;;;10.23;6.78;;;;;;;;;;4377152;32;20159;-64
2022/08/25 13:47:43;;;;;;;10.20;7.07;;;;;;;;;;4352870;32;20078;-65
2022/08/25 13:50:34;;;;;;;11.93;7.32;;;;;;;;;;4376554;32;20085;-63
2022/08/25 13:53:03;;;;;;;12.32;8.15;;;;;;;;;;4364085;32;20102;-63
2022/08/25 13:55:50;;;;;;;9.25;7.43;;;;;;;;;;4364945;32;20077;-63
2022/08/25 13:58:27;;;;;;;11.43;7.78;;;;;;;;;;4376494;32;20076;-64
2022/08/25 14:01:16;;;;;;;13.32;8.10;;;;;;;;;;4378124;32;20190;-65
2022/08/25 14:03:45;;;;;;;12.23;8.15;;;;;;;;;;4370668;32;20124;-66
2022/08/25 14:06:14;;;;;;;13.05;8.27;;;;;;;;;;4373567;32;20059;-65
2022/08/25 14:08:57;;;;;;;12.15;7.82;;;;;;;;;;4377598;32;20494;-66
2022/08/25 14:11:26;;;;;;;17.87;8.55;;;;;;;;;;4364462;32;20077;-66
2022/08/25 14:14:01;;;;;;;10.38;7.28;;;;;;;;;;4379109;32;20074;-67
2022/08/25 14:16:36;;;;;;;21.80;12.63;;;;;;;;;;4376835;32;20074;-65
2022/08/25 14:19:03;;;;;;;13.13;8.13;;;;;;;;;;4375740;32;20154;-64
2022/08/25 14:21:31;;;;;;;11.20;8.07;;;;;;;;;;4376081;32;20588;-65
2022/08/25 14:23:58;;;;;;;13.95;8.63;;;;;;;;;;4363446;32;20081;-64
2022/08/25 14:26:25;;;;;;;13.35;9.13;;;;;;;;;;4375993;32;20168;-65
2022/08/25 14:28:52;;;;;;;12.13;7.90;;;;;;;;;;4377225;32;20113;-65
2022/08/25 14:31:30;;;;;;;11.63;8.02;;;;;;;;;;4377023;32;20101;-64
2022/08/25 14:34:07;;;;;;;10.43;7.47;;;;;;;;;;4375536;32;20476;-64
2022/08/25 14:36:34;;;;;;;12.45;9.18;;;;;;;;;;4375807;32;20066;-64
2022/08/25 14:39:05;;;;;;;11.12;8.48;;;;;;;;;;4363002;32;20152;-65
2022/08/25 14:41:33;;;;;;;14.18;8.27;;;;;;;;;;4363511;32;20062;-65
2022/08/25 14:44:01;;;;;;;13.98;8.50;;;;;;;;;;4375608;32;20170;-65
2022/08/25 14:46:30;;;;;;;11.85;8.60;;;;;;;;;;4375157;32;20094;-64
2022/08/25 14:48:58;;;;;;;14.87;8.65;;;;;;;;;;4375274;32;20088;-65
2022/08/25 14:51:26;;;;;;;10.20;8.25;;;;;;;;;;4376908;32;20513;-64
2022/08/25 14:53:55;;;;;;;12.32;8.02;;;;;;;;;;4362719;32;20524;-65
2022/08/25 14:56:21;;;;;;;15.98;8.70;;;;;;;;;;4363104;32;20104;-65
2022/08/25 14:58:48;;;;;;;14.38;8.13;;;;;;;;;;4375756;32;20078;-64
2022/08/25 15:01:16;;;;;;;13.65;8.07;;;;;;;;;;4376873;32;20138;-65
2022/08/25 15:03:45;;;;;;;15.38;8.45;;;;;;;;;;4375558;32;20574;-66
2022/08/25 15:06:13;;;;;;;12.48;7.90;;;;;;;;;;4362778;32;20163;-66
2022/08/25 15:11:28;;;;;;;15.65;7.53;;;;;;;;;;4365032;32;20438;-65
2022/08/25 15:13:54;;;;;;;11.07;8.15;;;;;;;;;;4375207;32;20092;-64
2022/08/25 15:16:28;;;;;;;14.48;8.10;;;;;;;;;;4376665;32;20169;-65
2022/08/25 15:18:55;;;;;;;15.68;8.63;;;;;;;;;;4362739;32;20072;-66
2022/08/25 15:21:22;;;;;;;13.75;8.32;;;;;;;;;;4362909;32;20074;-65
2022/08/25 15:23:48;;;;;;;17.73;8.90;;;;;;;;;;4375820;32;20084;-64